sensor_id;sensor_type;location;lat;lon;timestamp;pressure;altitude;pressure_sealevel;temperature;humidity
77227;BME280;66234;47.642;19.144;2023-05-07T00:02:11;100325.63;;;14.42;90.15
77227;BME280;66234;47.642;19.144;2023-05-07T00:05:14;100322.00;;;14.36;89.84
77227;BME280;66234;47.642;19.144;2023-05-07T00:08:17;100325.16;;;14.33;89.83
77227;BME280;66234;47.642;19.144;2023-05-07T00:11:20;100328.53;;;14.29;90.06
77227;BME280;66234;47.642;19.144;2023-05-07T00:14:22;100324.41;;;14.26;90.27
77227;BME280;66234;47.642;19.144;2023-05-07T00:17:25;100320.31;;;14.24;89.88
77227;BME280;66234;47.642;19.144;2023-05-07T00:20:28;100323.66;;;14.19;89.29
77227;BME280;66234;47.642;19.144;2023-05-07T00:23:30;100321.66;;;14.15;89.49
77227;BME280;66234;47.642;19.144;2023-05-07T00:26:33;100331.03;;;14.12;89.41
77227;BME280;66234;47.642;19.144;2023-05-07T00:29:36;100331.13;;;14.17;89.19
77227;BME280;66234;47.642;19.144;2023-05-07T00:32:38;100333.31;;;14.27;89.97
77227;BME280;66234;47.642;19.144;2023-05-07T00:35:42;100327.47;;;14.30;89.91
77227;BME280;66234;47.642;19.144;2023-05-07T00:38:44;100337.63;;;14.28;89.73
77227;BME280;66234;47.642;19.144;2023-05-07T00:41:47;100335.22;;;14.38;89.10
77227;BME280;66234;47.642;19.144;2023-05-07T00:44:50;100330.56;;;14.45;88.70
77227;BME280;66234;47.642;19.144;2023-05-07T00:47:57;100332.78;;;14.48;88.92
77227;BME280;66234;47.642;19.144;2023-05-07T00:51:01;100333.00;;;14.35;89.72
77227;BME280;66234;47.642;19.144;2023-05-07T00:54:04;100339.91;;;14.31;90.90
77227;BME280;66234;47.642;19.144;2023-05-07T00:57:09;100338.22;;;14.30;90.94
77227;BME280;66234;47.642;19.144;2023-05-07T01:00:12;100339.91;;;14.31;90.99
77227;BME280;66234;47.642;19.144;2023-05-07T01:03:16;100340.59;;;14.38;91.05
77227;BME280;66234;47.642;19.144;2023-05-07T01:06:20;100340.84;;;14.36;91.29
77227;BME280;66234;47.642;19.144;2023-05-07T01:09:25;100339.31;;;14.40;91.00
77227;BME280;66234;47.642;19.144;2023-05-07T01:12:29;100337.00;;;14.44;91.07
77227;BME280;66234;47.642;19.144;2023-05-07T01:15:33;100340.50;;;14.44;90.48
77227;BME280;66234;47.642;19.144;2023-05-07T01:18:36;100340.75;;;14.43;90.53
77227;BME280;66234;47.642;19.144;2023-05-07T01:21:45;100345.91;;;14.44;90.44
77227;BME280;66234;47.642;19.144;2023-05-07T01:24:49;100345.34;;;14.54;89.94
77227;BME280;66234;47.642;19.144;2023-05-07T01:27:52;100351.53;;;14.54;89.75
77227;BME280;66234;47.642;19.144;2023-05-07T01:31:01;100354.81;;;14.56;89.44
77227;BME280;66234;47.642;19.144;2023-05-07T01:34:07;100350.94;;;14.52;89.87
77227;BME280;66234;47.642;19.144;2023-05-07T01:37:11;100344.38;;;14.48;90.25
77227;BME280;66234;47.642;19.144;2023-05-07T01:40:13;100346.13;;;14.54;89.77
77227;BME280;66234;47.642;19.144;2023-05-07T01:43:17;100344.59;;;14.47;89.64
77227;BME280;66234;47.642;19.144;2023-05-07T01:46:20;100338.75;;;14.50;89.77
77227;BME280;66234;47.642;19.144;2023-05-07T01:49:22;100340.75;;;14.43;89.72
77227;BME280;66234;47.642;19.144;2023-05-07T01:52:27;100338.28;;;14.41;90.30
77227;BME280;66234;47.642;19.144;2023-05-07T01:55:30;100336.84;;;14.39;90.31
77227;BME280;66234;47.642;19.144;2023-05-07T01:58:33;100333.59;;;14.37;90.17
77227;BME280;66234;47.642;19.144;2023-05-07T02:01:36;100330.53;;;14.33;90.53
77227;BME280;66234;47.642;19.144;2023-05-07T02:04:39;100326.22;;;14.32;90.38
77227;BME280;66234;47.642;19.144;2023-05-07T02:07:42;100317.53;;;14.30;90.53
77227;BME280;66234;47.642;19.144;2023-05-07T02:10:44;100323.75;;;14.31;90.45
77227;BME280;66234;47.642;19.144;2023-05-07T02:13:47;100317.41;;;14.25;90.25
77227;BME280;66234;47.642;19.144;2023-05-07T02:16:49;100319.69;;;14.22;90.93
77227;BME280;66234;47.642;19.144;2023-05-07T02:19:53;100324.66;;;14.25;91.13
77227;BME280;66234;47.642;19.144;2023-05-07T02:22:55;100327.94;;;14.27;91.35
77227;BME280;66234;47.642;19.144;2023-05-07T02:26:00;100330.03;;;14.25;91.86
77227;BME280;66234;47.642;19.144;2023-05-07T02:29:03;100331.97;;;14.18;92.26
77227;BME280;66234;47.642;19.144;2023-05-07T02:32:06;100329.13;;;14.13;91.35
77227;BME280;66234;47.642;19.144;2023-05-07T02:35:09;100335.50;;;14.00;91.58
77227;BME280;66234;47.642;19.144;2023-05-07T02:38:12;100326.72;;;13.93;91.45
77227;BME280;66234;47.642;19.144;2023-05-07T02:41:16;100325.44;;;13.96;91.26
77227;BME280;66234;47.642;19.144;2023-05-07T02:44:18;100316.50;;;13.84;91.46
77227;BME280;66234;47.642;19.144;2023-05-07T02:47:24;100320.72;;;13.80;91.87
77227;BME280;66234;47.642;19.144;2023-05-07T02:50:29;100321.34;;;13.75;92.02
77227;BME280;66234;47.642;19.144;2023-05-07T02:53:32;100326.94;;;13.74;92.00
77227;BME280;66234;47.642;19.144;2023-05-07T02:56:35;100335.63;;;13.76;92.38
77227;BME280;66234;47.642;19.144;2023-05-07T02:59:37;100331.06;;;13.76;92.52
77227;BME280;66234;47.642;19.144;2023-05-07T03:02:41;100326.16;;;13.73;92.55
77227;BME280;66234;47.642;19.144;2023-05-07T03:05:43;100329.78;;;13.79;92.80
77227;BME280;66234;47.642;19.144;2023-05-07T03:08:46;100332.47;;;13.79;92.03
77227;BME280;66234;47.642;19.144;2023-05-07T03:11:49;100330.84;;;13.78;92.19
77227;BME280;66234;47.642;19.144;2023-05-07T03:14:52;100332.03;;;13.82;92.38
77227;BME280;66234;47.642;19.144;2023-05-07T03:17:55;100333.69;;;13.83;91.75
77227;BME280;66234;47.642;19.144;2023-05-07T03:20:58;100336.50;;;13.88;91.26
77227;BME280;66234;47.642;19.144;2023-05-07T03:24:00;100331.13;;;13.88;91.25
77227;BME280;66234;47.642;19.144;2023-05-07T03:27:03;100336.28;;;13.89;91.28
77227;BME280;66234;47.642;19.144;2023-05-07T03:30:06;100337.69;;;13.92;91.01
77227;BME280;66234;47.642;19.144;2023-05-07T03:33:10;100337.56;;;13.87;91.12
77227;BME280;66234;47.642;19.144;2023-05-07T03:36:13;100340.84;;;13.89;91.22
77227;BME280;66234;47.642;19.144;2023-05-07T03:39:15;100336.28;;;13.89;91.41
77227;BME280;66234;47.642;19.144;2023-05-07T03:42:18;100338.72;;;13.91;91.08
77227;BME280;66234;47.642;19.144;2023-05-07T03:45:24;100335.25;;;13.90;91.37
77227;BME280;66234;47.642;19.144;2023-05-07T03:48:35;100347.69;;;13.85;91.76
77227;BME280;66234;47.642;19.144;2023-05-07T03:51:38;100344.50;;;13.76;92.08
77227;BME280;66234;47.642;19.144;2023-05-07T03:54:42;100346.59;;;13.74;92.31
77227;BME280;66234;47.642;19.144;2023-05-07T03:57:47;100338.16;;;13.71;92.51
77227;BME280;66234;47.642;19.144;2023-05-07T04:00:50;100349.81;;;13.65;92.69
77227;BME280;66234;47.642;19.144;2023-05-07T04:03:58;100350.69;;;13.59;93.27
77227;BME280;66234;47.642;19.144;2023-05-07T04:07:01;100352.22;;;13.55;93.51
77227;BME280;66234;47.642;19.144;2023-05-07T04:10:07;100347.28;;;13.52;93.47
77227;BME280;66234;47.642;19.144;2023-05-07T04:13:12;100347.13;;;13.47;93.47
77227;BME280;66234;47.642;19.144;2023-05-07T04:16:16;100346.53;;;13.45;93.50
77227;BME280;66234;47.642;19.144;2023-05-07T04:19:19;100353.91;;;13.49;93.11
77227;BME280;66234;47.642;19.144;2023-05-07T04:22:25;100344.66;;;13.45;92.96
77227;BME280;66234;47.642;19.144;2023-05-07T04:25:29;100352.44;;;13.53;93.07
77227;BME280;66234;47.642;19.144;2023-05-07T04:28:39;100362.06;;;13.61;92.89
77227;BME280;66234;47.642;19.144;2023-05-07T04:31:43;100358.91;;;13.64;93.25
77227;BME280;66234;47.642;19.144;2023-05-07T04:34:47;100363.19;;;13.53;93.60
77227;BME280;66234;47.642;19.144;2023-05-07T04:37:50;100374.44;;;13.44;94.33
77227;BME280;66234;47.642;19.144;2023-05-07T04:40:53;100376.84;;;13.52;94.62
77227;BME280;66234;47.642;19.144;2023-05-07T04:43:58;100378.78;;;13.63;93.85
77227;BME280;66234;47.642;19.144;2023-05-07T04:47:04;100378.63;;;13.76;93.20
77227;BME280;66234;47.642;19.144;2023-05-07T04:50:07;100380.78;;;13.85;92.88
77227;BME280;66234;47.642;19.144;2023-05-07T04:53:12;100375.63;;;13.84;93.06
77227;BME280;66234;47.642;19.144;2023-05-07T04:56:14;100380.72;;;13.92;92.83
77227;BME280;66234;47.642;19.144;2023-05-07T04:59:19;100378.41;;;13.95;93.13
77227;BME280;66234;47.642;19.144;2023-05-07T05:02:23;100391.66;;;14.08;92.68
77227;BME280;66234;47.642;19.144;2023-05-07T05:05:26;100384.88;;;14.24;92.05
77227;BME280;66234;47.642;19.144;2023-05-07T05:08:30;100393.56;;;14.37;91.58
77227;BME280;66234;47.642;19.144;2023-05-07T05:11:34;100387.16;;;14.38;90.86
77227;BME280;66234;47.642;19.144;2023-05-07T05:14:37;100387.50;;;14.42;91.07
77227;BME280;66234;47.642;19.144;2023-05-07T05:17:40;100394.25;;;14.51;90.81
77227;BME280;66234;47.642;19.144;2023-05-07T05:20:43;100397.09;;;14.67;89.50
77227;BME280;66234;47.642;19.144;2023-05-07T05:23:47;100390.91;;;14.78;88.70
77227;BME280;66234;47.642;19.144;2023-05-07T05:26:54;100396.31;;;14.90;88.26
77227;BME280;66234;47.642;19.144;2023-05-07T05:29:57;100394.22;;;15.04;88.14
77227;BME280;66234;47.642;19.144;2023-05-07T05:32:59;100393.66;;;15.13;86.89
77227;BME280;66234;47.642;19.144;2023-05-07T05:36:03;100395.28;;;15.26;87.01
77227;BME280;66234;47.642;19.144;2023-05-07T05:39:07;100398.16;;;15.42;85.34
77227;BME280;66234;47.642;19.144;2023-05-07T05:42:10;100391.34;;;15.51;84.96
77227;BME280;66234;47.642;19.144;2023-05-07T05:45:14;100389.09;;;15.60;84.77
77227;BME280;66234;47.642;19.144;2023-05-07T05:48:17;100383.47;;;15.73;83.78
77227;BME280;66234;47.642;19.144;2023-05-07T05:51:21;100387.19;;;15.83;83.39
77227;BME280;66234;47.642;19.144;2023-05-07T05:54:24;100393.28;;;15.90;83.52
77227;BME280;66234;47.642;19.144;2023-05-07T05:57:27;100391.50;;;15.96;82.29
77227;BME280;66234;47.642;19.144;2023-05-07T06:00:31;100396.38;;;16.10;81.45
77227;BME280;66234;47.642;19.144;2023-05-07T06:03:38;100396.94;;;16.24;80.76
77227;BME280;66234;47.642;19.144;2023-05-07T06:06:46;100387.16;;;16.34;80.69
77227;BME280;66234;47.642;19.144;2023-05-07T06:09:49;100374.91;;;16.43;79.45
77227;BME280;66234;47.642;19.144;2023-05-07T06:12:52;100381.59;;;16.53;78.85
77227;BME280;66234;47.642;19.144;2023-05-07T06:15:55;100381.28;;;16.66;78.39
77227;BME280;66234;47.642;19.144;2023-05-07T06:18:57;100390.63;;;16.75;77.33
77227;BME280;66234;47.642;19.144;2023-05-07T06:22:00;100383.50;;;16.85;77.85
77227;BME280;66234;47.642;19.144;2023-05-07T06:25:06;100383.22;;;16.98;76.84
77227;BME280;66234;47.642;19.144;2023-05-07T06:28:09;100381.81;;;17.12;76.25
77227;BME280;66234;47.642;19.144;2023-05-07T06:31:17;100375.59;;;17.12;74.54
77227;BME280;66234;47.642;19.144;2023-05-07T06:34:31;100376.22;;;17.19;75.29
77227;BME280;66234;47.642;19.144;2023-05-07T06:37:33;100388.34;;;17.33;74.49
77227;BME280;66234;47.642;19.144;2023-05-07T06:40:39;100387.91;;;17.41;74.87
77227;BME280;66234;47.642;19.144;2023-05-07T06:43:42;100393.53;;;17.51;73.38
77227;BME280;66234;47.642;19.144;2023-05-07T06:47:05;100391.59;;;17.68;73.88
77227;BME280;66234;47.642;19.144;2023-05-07T06:50:09;100396.72;;;17.86;72.43
77227;BME280;66234;47.642;19.144;2023-05-07T06:53:13;100395.09;;;17.85;73.05
77227;BME280;66234;47.642;19.144;2023-05-07T06:56:19;100398.66;;;18.12;72.82
77227;BME280;66234;47.642;19.144;2023-05-07T06:59:23;100397.28;;;18.10;72.40
77227;BME280;66234;47.642;19.144;2023-05-07T07:02:27;100396.75;;;18.34;71.91
77227;BME280;66234;47.642;19.144;2023-05-07T07:05:29;100397.59;;;18.35;71.70
77227;BME280;66234;47.642;19.144;2023-05-07T07:08:33;100397.78;;;18.50;71.83
77227;BME280;66234;47.642;19.144;2023-05-07T07:11:37;100395.41;;;18.37;68.81
77227;BME280;66234;47.642;19.144;2023-05-07T07:14:41;100396.50;;;18.57;68.55
77227;BME280;66234;47.642;19.144;2023-05-07T07:17:44;100397.72;;;18.71;67.30
77227;BME280;66234;47.642;19.144;2023-05-07T07:20:47;100394.88;;;18.88;66.91
77227;BME280;66234;47.642;19.144;2023-05-07T07:23:50;100391.88;;;18.84;67.68
77227;BME280;66234;47.642;19.144;2023-05-07T07:26:55;100398.28;;;19.05;67.19
77227;BME280;66234;47.642;19.144;2023-05-07T07:29:59;100398.72;;;18.92;66.65
77227;BME280;66234;47.642;19.144;2023-05-07T07:33:05;100399.97;;;19.11;64.06
77227;BME280;66234;47.642;19.144;2023-05-07T07:36:11;100402.59;;;19.27;62.46
77227;BME280;66234;47.642;19.144;2023-05-07T07:39:13;100401.72;;;19.27;62.00
77227;BME280;66234;47.642;19.144;2023-05-07T07:42:17;100400.75;;;19.38;63.44
77227;BME280;66234;47.642;19.144;2023-05-07T07:45:20;100398.47;;;19.67;60.04
77227;BME280;66234;47.642;19.144;2023-05-07T07:48:25;100398.75;;;19.65;61.08
77227;BME280;66234;47.642;19.144;2023-05-07T07:51:28;100400.13;;;19.68;60.26
77227;BME280;66234;47.642;19.144;2023-05-07T07:54:32;100398.00;;;19.75;60.59
77227;BME280;66234;47.642;19.144;2023-05-07T07:57:35;100395.97;;;20.02;58.40
77227;BME280;66234;47.642;19.144;2023-05-07T08:00:38;100403.47;;;20.46;57.00
77227;BME280;66234;47.642;19.144;2023-05-07T08:03:41;100408.75;;;21.03;53.52
77227;BME280;66234;47.642;19.144;2023-05-07T08:06:44;100405.97;;;20.63;51.46
77227;BME280;66234;47.642;19.144;2023-05-07T08:09:47;100406.78;;;20.88;51.45
77227;BME280;66234;47.642;19.144;2023-05-07T08:12:52;100405.50;;;21.06;51.86
77227;BME280;66234;47.642;19.144;2023-05-07T08:15:55;100416.38;;;21.26;52.75
77227;BME280;66234;47.642;19.144;2023-05-07T08:18:58;100409.00;;;21.47;51.75
77227;BME280;66234;47.642;19.144;2023-05-07T08:22:02;100413.34;;;21.48;51.36
77227;BME280;66234;47.642;19.144;2023-05-07T08:25:06;100410.91;;;21.41;50.56
77227;BME280;66234;47.642;19.144;2023-05-07T08:28:09;100409.56;;;21.34;50.99
77227;BME280;66234;47.642;19.144;2023-05-07T08:31:13;100399.19;;;21.51;50.67
77227;BME280;66234;47.642;19.144;2023-05-07T08:34:22;100389.91;;;21.72;50.86
77227;BME280;66234;47.642;19.144;2023-05-07T08:37:27;100402.38;;;21.98;49.64
77227;BME280;66234;47.642;19.144;2023-05-07T08:40:36;100395.06;;;21.93;49.84
77227;BME280;66234;47.642;19.144;2023-05-07T08:43:41;100399.97;;;21.86;50.40
77227;BME280;66234;47.642;19.144;2023-05-07T08:46:45;100399.88;;;22.06;49.92
77227;BME280;66234;47.642;19.144;2023-05-07T08:49:53;100394.81;;;22.43;48.16
77227;BME280;66234;47.642;19.144;2023-05-07T08:52:57;100398.94;;;22.31;47.17
77227;BME280;66234;47.642;19.144;2023-05-07T08:56:01;100396.47;;;22.39;47.80
77227;BME280;66234;47.642;19.144;2023-05-07T08:59:05;100404.19;;;22.71;47.74
77227;BME280;66234;47.642;19.144;2023-05-07T09:02:09;100402.31;;;22.66;47.21
77227;BME280;66234;47.642;19.144;2023-05-07T09:05:13;100407.94;;;22.36;46.56
77227;BME280;66234;47.642;19.144;2023-05-07T09:08:16;100408.22;;;22.30;47.56
77227;BME280;66234;47.642;19.144;2023-05-07T09:11:22;100407.09;;;21.57;50.59
77227;BME280;66234;47.642;19.144;2023-05-07T09:14:26;100410.88;;;21.66;51.54
77227;BME280;66234;47.642;19.144;2023-05-07T09:17:30;100405.69;;;21.60;50.42
77227;BME280;66234;47.642;19.144;2023-05-07T09:20:33;100401.84;;;21.91;49.93
77227;BME280;66234;47.642;19.144;2023-05-07T09:23:37;100406.16;;;22.02;49.08
77227;BME280;66234;47.642;19.144;2023-05-07T09:26:41;100393.97;;;21.74;48.42
77227;BME280;66234;47.642;19.144;2023-05-07T09:29:45;100398.34;;;21.85;48.57
77227;BME280;66234;47.642;19.144;2023-05-07T09:32:50;100396.56;;;22.24;49.14
77227;BME280;66234;47.642;19.144;2023-05-07T09:35:56;100398.38;;;22.34;47.84
77227;BME280;66234;47.642;19.144;2023-05-07T09:39:00;100395.28;;;22.02;49.10
77227;BME280;66234;47.642;19.144;2023-05-07T09:42:04;100400.78;;;21.82;49.02
77227;BME280;66234;47.642;19.144;2023-05-07T09:45:10;100394.53;;;21.61;49.40
77227;BME280;66234;47.642;19.144;2023-05-07T09:48:16;100388.31;;;21.66;49.21
77227;BME280;66234;47.642;19.144;2023-05-07T09:51:25;100383.09;;;21.74;47.09
77227;BME280;66234;47.642;19.144;2023-05-07T09:54:33;100392.63;;;21.82;47.41
77227;BME280;66234;47.642;19.144;2023-05-07T09:57:38;100390.03;;;22.15;47.94
77227;BME280;66234;47.642;19.144;2023-05-07T10:00:43;100399.50;;;22.82;47.09
77227;BME280;66234;47.642;19.144;2023-05-07T10:03:49;100395.06;;;22.47;48.18
77227;BME280;66234;47.642;19.144;2023-05-07T10:06:54;100405.09;;;22.61;47.42
77227;BME280;66234;47.642;19.144;2023-05-07T10:09:59;100400.69;;;22.65;48.19
77227;BME280;66234;47.642;19.144;2023-05-07T10:13:08;100407.63;;;22.43;47.79
77227;BME280;66234;47.642;19.144;2023-05-07T10:16:17;100403.63;;;23.13;46.51
77227;BME280;66234;47.642;19.144;2023-05-07T10:19:22;100400.03;;;23.51;46.01
77227;BME280;66234;47.642;19.144;2023-05-07T10:22:32;100401.31;;;23.58;45.66
77227;BME280;66234;47.642;19.144;2023-05-07T10:25:36;100395.09;;;23.53;45.89
77227;BME280;66234;47.642;19.144;2023-05-07T10:28:49;100410.94;;;22.84;47.45
77227;BME280;66234;47.642;19.144;2023-05-07T10:35:26;100394.63;;;22.79;48.36
77227;BME280;66234;47.642;19.144;2023-05-07T10:38:32;100399.19;;;22.44;49.37
77227;BME280;66234;47.642;19.144;2023-05-07T10:41:36;100394.03;;;22.33;48.82
77227;BME280;66234;47.642;19.144;2023-05-07T10:44:39;100395.94;;;22.37;49.92
77227;BME280;66234;47.642;19.144;2023-05-07T10:51:32;100395.88;;;22.47;49.74
77227;BME280;66234;47.642;19.144;2023-05-07T10:58:31;100391.78;;;22.94;47.93
77227;BME280;66234;47.642;19.144;2023-05-07T11:01:56;100397.84;;;22.86;48.52
77227;BME280;66234;47.642;19.144;2023-05-07T11:05:21;100388.84;;;23.19;47.33
77227;BME280;66234;47.642;19.144;2023-05-07T11:11:57;100384.31;;;23.90;45.52
77227;BME280;66234;47.642;19.144;2023-05-07T11:15:39;100388.25;;;23.55;45.30
77227;BME280;66234;47.642;19.144;2023-05-07T11:18:52;100380.38;;;23.77;43.18
77227;BME280;66234;47.642;19.144;2023-05-07T11:22:03;100378.84;;;24.13;44.19
77227;BME280;66234;47.642;19.144;2023-05-07T11:25:22;100372.19;;;23.49;46.43
77227;BME280;66234;47.642;19.144;2023-05-07T11:28:43;100379.31;;;22.83;45.74
77227;BME280;66234;47.642;19.144;2023-05-07T11:31:53;100387.66;;;22.57;48.60
77227;BME280;66234;47.642;19.144;2023-05-07T11:38:02;100391.19;;;22.63;46.64
77227;BME280;66234;47.642;19.144;2023-05-07T11:41:08;100388.50;;;22.58;46.12
77227;BME280;66234;47.642;19.144;2023-05-07T11:44:10;100381.66;;;22.60;45.78
77227;BME280;66234;47.642;19.144;2023-05-07T11:47:19;100377.84;;;22.61;45.29
77227;BME280;66234;47.642;19.144;2023-05-07T11:50:22;100387.97;;;22.51;44.75
77227;BME280;66234;47.642;19.144;2023-05-07T11:53:26;100382.19;;;22.09;46.15
77227;BME280;66234;47.642;19.144;2023-05-07T11:56:29;100372.91;;;22.10;45.21
77227;BME280;66234;47.642;19.144;2023-05-07T11:59:38;100368.03;;;22.55;44.42
77227;BME280;66234;47.642;19.144;2023-05-07T12:02:43;100374.09;;;22.42;46.11
77227;BME280;66234;47.642;19.144;2023-05-07T12:05:46;100390.28;;;22.24;47.14
77227;BME280;66234;47.642;19.144;2023-05-07T12:08:49;100383.66;;;21.71;49.44
77227;BME280;66234;47.642;19.144;2023-05-07T12:11:52;100372.06;;;23.35;45.66
77227;BME280;66234;47.642;19.144;2023-05-07T12:14:55;100385.97;;;23.62;44.96
77227;BME280;66234;47.642;19.144;2023-05-07T12:17:58;100372.63;;;24.50;42.64
77227;BME280;66234;47.642;19.144;2023-05-07T12:21:00;100365.56;;;25.32;40.39
77227;BME280;66234;47.642;19.144;2023-05-07T12:24:04;100360.31;;;26.08;39.63
77227;BME280;66234;47.642;19.144;2023-05-07T12:27:07;100368.13;;;26.86;37.20
77227;BME280;66234;47.642;19.144;2023-05-07T12:30:10;100369.28;;;25.22;38.63
77227;BME280;66234;47.642;19.144;2023-05-07T12:33:17;100363.28;;;25.07;37.97
77227;BME280;66234;47.642;19.144;2023-05-07T12:36:20;100355.47;;;26.63;36.00
77227;BME280;66234;47.642;19.144;2023-05-07T12:39:23;100362.78;;;24.86;37.48
77227;BME280;66234;47.642;19.144;2023-05-07T12:42:26;100365.22;;;24.32;37.58
77227;BME280;66234;47.642;19.144;2023-05-07T12:45:28;100360.44;;;23.77;37.91
77227;BME280;66234;47.642;19.144;2023-05-07T12:48:31;100356.94;;;24.37;37.75
77227;BME280;66234;47.642;19.144;2023-05-07T12:51:35;100356.22;;;23.61;39.99
77227;BME280;66234;47.642;19.144;2023-05-07T12:54:38;100353.84;;;23.78;40.31
77227;BME280;66234;47.642;19.144;2023-05-07T12:57:43;100342.41;;;25.70;36.45
77227;BME280;66234;47.642;19.144;2023-05-07T13:00:49;100351.19;;;26.48;35.13
77227;BME280;66234;47.642;19.144;2023-05-07T13:03:52;100343.22;;;25.70;36.69
77227;BME280;66234;47.642;19.144;2023-05-07T13:06:55;100336.34;;;26.49;35.08
77227;BME280;66234;47.642;19.144;2023-05-07T13:09:58;100336.28;;;27.99;32.96
77227;BME280;66234;47.642;19.144;2023-05-07T13:13:00;100326.28;;;27.64;32.87
77227;BME280;66234;47.642;19.144;2023-05-07T13:16:04;100335.16;;;26.77;34.36
77227;BME280;66234;47.642;19.144;2023-05-07T13:19:08;100340.47;;;26.60;35.21
77227;BME280;66234;47.642;19.144;2023-05-07T13:22:11;100332.41;;;26.77;34.97
77227;BME280;66234;47.642;19.144;2023-05-07T13:25:13;100328.13;;;26.93;35.59
77227;BME280;66234;47.642;19.144;2023-05-07T13:28:17;100323.41;;;27.77;34.12
77227;BME280;66234;47.642;19.144;2023-05-07T13:31:20;100332.63;;;27.33;34.05
77227;BME280;66234;47.642;19.144;2023-05-07T13:34:23;100327.25;;;28.07;33.69
77227;BME280;66234;47.642;19.144;2023-05-07T13:37:26;100324.94;;;27.44;32.94
77227;BME280;66234;47.642;19.144;2023-05-07T13:40:28;100316.44;;;28.10;32.42
77227;BME280;66234;47.642;19.144;2023-05-07T13:43:31;100305.63;;;29.83;29.21
77227;BME280;66234;47.642;19.144;2023-05-07T13:46:35;100307.69;;;29.19;31.01
77227;BME280;66234;47.642;19.144;2023-05-07T13:49:38;100309.19;;;28.74;31.75
77227;BME280;66234;47.642;19.144;2023-05-07T13:52:42;100298.31;;;29.87;28.96
77227;BME280;66234;47.642;19.144;2023-05-07T13:55:48;100306.13;;;28.50;31.30
77227;BME280;66234;47.642;19.144;2023-05-07T13:58:50;100307.38;;;28.95;30.10
77227;BME280;66234;47.642;19.144;2023-05-07T14:02:02;100305.09;;;28.12;31.68
77227;BME280;66234;47.642;19.144;2023-05-07T14:05:05;100301.97;;;29.99;29.54
77227;BME280;66234;47.642;19.144;2023-05-07T14:08:07;100305.28;;;28.15;31.38
77227;BME280;66234;47.642;19.144;2023-05-07T14:11:10;100305.13;;;28.37;30.67
77227;BME280;66234;47.642;19.144;2023-05-07T14:14:13;100311.91;;;28.23;30.86
77227;BME280;66234;47.642;19.144;2023-05-07T14:17:18;100302.94;;;29.28;29.00
77227;BME280;66234;47.642;19.144;2023-05-07T14:20:21;100303.69;;;28.48;29.87
77227;BME280;66234;47.642;19.144;2023-05-07T14:23:23;100312.91;;;28.35;29.85
77227;BME280;66234;47.642;19.144;2023-05-07T14:26:28;100309.47;;;28.04;30.51
77227;BME280;66234;47.642;19.144;2023-05-07T14:29:31;100312.91;;;27.71;30.25
77227;BME280;66234;47.642;19.144;2023-05-07T14:32:45;100320.69;;;28.50;29.31
77227;BME280;66234;47.642;19.144;2023-05-07T14:35:48;100323.22;;;27.65;31.31
77227;BME280;66234;47.642;19.144;2023-05-07T14:38:53;100318.56;;;27.74;31.27
77227;BME280;66234;47.642;19.144;2023-05-07T14:42:01;100315.44;;;28.06;30.38
77227;BME280;66234;47.642;19.144;2023-05-07T14:45:04;100318.69;;;28.00;30.90
77227;BME280;66234;47.642;19.144;2023-05-07T14:48:07;100328.91;;;28.93;29.83
77227;BME280;66234;47.642;19.144;2023-05-07T14:51:12;100321.91;;;29.30;28.58
77227;BME280;66234;47.642;19.144;2023-05-07T14:54:15;100334.41;;;28.93;29.32
77227;BME280;66234;47.642;19.144;2023-05-07T14:57:18;100325.50;;;28.11;30.79
77227;BME280;66234;47.642;19.144;2023-05-07T15:00:21;100321.09;;;28.01;30.90
77227;BME280;66234;47.642;19.144;2023-05-07T15:03:24;100334.06;;;28.09;30.10
77227;BME280;66234;47.642;19.144;2023-05-07T15:06:27;100319.47;;;28.00;30.86
77227;BME280;66234;47.642;19.144;2023-05-07T15:09:30;100326.94;;;27.08;32.00
77227;BME280;66234;47.642;19.144;2023-05-07T15:12:33;100329.59;;;28.47;30.22
77227;BME280;66234;47.642;19.144;2023-05-07T15:15:35;100329.09;;;28.62;29.13
77227;BME280;66234;47.642;19.144;2023-05-07T15:18:38;100313.38;;;27.73;30.45
77227;BME280;66234;47.642;19.144;2023-05-07T15:21:41;100322.16;;;28.65;29.34
77227;BME280;66234;47.642;19.144;2023-05-07T15:24:43;100320.03;;;28.28;30.38
77227;BME280;66234;47.642;19.144;2023-05-07T15:27:46;100318.09;;;26.89;32.15
77227;BME280;66234;47.642;19.144;2023-05-07T15:30:49;100314.84;;;27.70;31.24
77227;BME280;66234;47.642;19.144;2023-05-07T15:33:52;100312.25;;;28.21;30.36
77227;BME280;66234;47.642;19.144;2023-05-07T15:36:55;100321.16;;;28.44;29.97
77227;BME280;66234;47.642;19.144;2023-05-07T15:39:59;100319.09;;;28.49;30.13
77227;BME280;66234;47.642;19.144;2023-05-07T15:43:04;100315.94;;;27.61;31.00
77227;BME280;66234;47.642;19.144;2023-05-07T15:46:07;100322.66;;;27.46;31.20
77227;BME280;66234;47.642;19.144;2023-05-07T15:49:09;100327.28;;;26.84;31.89
77227;BME280;66234;47.642;19.144;2023-05-07T15:52:12;100319.38;;;27.13;31.80
77227;BME280;66234;47.642;19.144;2023-05-07T15:55:18;100320.59;;;27.60;30.99
77227;BME280;66234;47.642;19.144;2023-05-07T15:58:21;100330.09;;;26.93;32.46
77227;BME280;66234;47.642;19.144;2023-05-07T16:01:24;100327.47;;;27.10;32.23
77227;BME280;66234;47.642;19.144;2023-05-07T16:04:27;100328.31;;;26.39;33.50
77227;BME280;66234;47.642;19.144;2023-05-07T16:07:29;100331.69;;;26.94;32.54
77227;BME280;66234;47.642;19.144;2023-05-07T16:10:32;100338.84;;;26.24;32.54